Terminal Aerodrome Forecast
Issued by NWS

Home | Current Version | Previous Version | Text Only | Print | Product List | Glossary On
Versions: 1 2 3 4 5 6 7 8 9 10 11 12 13 14 15 16 17 18 19
000
FTAK31 PAJN 201700 CCA
TAFAJN
TAF COR
PAJN 201736Z 2018/2118 08004KT P6SM -RA FEW004 SCT025 OVC050
      TEMPO 2018/2022 2SM -RA BR SCT004 BKN025 OVC040
     FM202200 13020G30KT P6SM -RA SCT010 SCT025 OVC035
     FM210000 11015G25KT P6SM -RA SCT025 OVC040
     FM210200 08008KT P6SM VCSH SCT025 OVC050
     FM211700 12012KT 3SM -RA BR BKN010 OVC040=

USA.gov is the U.S. government's official web portal to all federal, state and local government web resources and services.